createdAt,value
2023-02-28T00:00:21.759Z,4.60
2023-02-28T00:02:52.835Z,5.03
2023-02-28T00:05:25.146Z,5.03
2023-02-28T00:07:56.013Z,4.38
2023-02-28T00:10:30.775Z,4.80
2023-02-28T00:13:05.315Z,4.65
2023-02-28T00:15:36.147Z,4.90
2023-02-28T00:18:07.025Z,5.00
2023-02-28T00:20:37.351Z,4.43
2023-02-28T00:23:07.787Z,4.65
2023-02-28T00:25:40.724Z,4.70
2023-02-28T00:28:11.007Z,4.10
2023-02-28T00:30:41.505Z,4.65
2023-02-28T00:33:12.125Z,4.63
2023-02-28T00:35:42.947Z,4.68
2023-02-28T00:38:13.801Z,4.03
2023-02-28T00:40:46.675Z,4.93
2023-02-28T00:43:17.064Z,4.65
2023-02-28T00:45:48.945Z,4.28
2023-02-28T00:48:19.320Z,4.55
2023-02-28T00:50:53.170Z,3.85
2023-02-28T00:53:23.429Z,4.65
2023-02-28T00:55:56.680Z,4.20
2023-02-28T00:58:27.104Z,4.55
2023-02-28T01:00:57.788Z,4.75
2023-02-28T01:03:28.456Z,4.05
2023-02-28T01:05:58.947Z,4.15
2023-02-28T01:08:29.791Z,3.70
2023-02-28T01:11:12.446Z,4.47
2023-02-28T01:13:45.335Z,3.75
2023-02-28T01:16:16.866Z,4.07
2023-02-28T01:18:48.015Z,3.40
2023-02-28T01:21:20.563Z,3.83
2023-02-28T01:23:51.207Z,4.82
2023-02-28T01:26:26.096Z,3.60
2023-02-28T01:28:57.417Z,3.92
2023-02-28T01:31:30.021Z,3.90
2023-02-28T01:34:00.465Z,3.80
2023-02-28T01:36:33.553Z,4.20
2023-02-28T01:39:03.866Z,4.50
2023-02-28T01:41:38.852Z,4.38
2023-02-28T01:44:10.474Z,4.03
2023-02-28T01:46:40.916Z,4.60
2023-02-28T01:49:17.031Z,4.10
2023-02-28T01:51:51.985Z,3.78
2023-02-28T01:54:27.486Z,4.18
2023-02-28T01:57:05.828Z,3.95
2023-02-28T01:59:41.602Z,4.35
2023-02-28T02:02:11.998Z,3.83
2023-02-28T02:04:49.334Z,4.05
2023-02-28T02:07:20.251Z,4.13
2023-02-28T02:09:50.776Z,3.70
2023-02-28T02:12:32.293Z,4.00
2023-02-28T02:15:13.367Z,3.85
2023-02-28T02:17:47.890Z,3.80
2023-02-28T02:20:46.920Z,4.68
2023-02-28T02:23:46.700Z,4.43
2023-02-28T02:26:47.108Z,4.05
2023-02-28T02:29:59.660Z,4.97
2023-02-28T02:32:59.574Z,4.63
2023-02-28T02:35:35.532Z,4.20
2023-02-28T02:38:12.879Z,4.50
2023-02-28T02:40:50.779Z,4.93
2023-02-28T02:43:26.760Z,5.13
2023-02-28T02:46:03.234Z,5.03
2023-02-28T02:48:37.916Z,4.70
2023-02-28T02:51:16.902Z,4.35
2023-02-28T02:53:53.625Z,4.55
2023-02-28T02:56:28.502Z,5.00
2023-02-28T02:59:05.807Z,4.45
2023-02-28T03:01:38.489Z,5.03
2023-02-28T03:04:12.929Z,4.65
2023-02-28T03:06:45.926Z,4.93
2023-02-28T03:09:16.256Z,5.63
2023-02-28T03:11:46.743Z,5.05
2023-02-28T03:14:40.936Z,5.00
2023-02-28T03:17:37.168Z,5.38
2023-02-28T03:20:14.673Z,5.45
2023-02-28T03:22:56.202Z,5.10
2023-02-28T03:25:35.199Z,5.10
2023-02-28T03:28:11.255Z,5.43
2023-02-28T03:30:49.222Z,5.40
2023-02-28T03:33:24.268Z,4.78
2023-02-28T03:35:57.898Z,5.97
2023-02-28T03:38:37.118Z,5.35
2023-02-28T03:41:13.459Z,5.43
2023-02-28T03:43:48.046Z,6.80
2023-02-28T03:46:22.965Z,5.45
2023-02-28T03:48:56.998Z,5.70
2023-02-28T03:51:30.458Z,5.63
2023-02-28T03:54:10.440Z,6.55
2023-02-28T03:56:45.176Z,5.97
2023-02-28T03:59:20.007Z,6.28
2023-02-28T04:01:52.829Z,6.60
2023-02-28T04:04:23.323Z,6.38
2023-02-28T04:06:55.542Z,6.53
2023-02-28T04:09:28.894Z,6.63
2023-02-28T04:11:59.595Z,6.85
2023-02-28T04:14:30.406Z,5.80
2023-02-28T04:17:00.717Z,5.95
2023-02-28T04:19:31.014Z,5.80
2023-02-28T04:22:01.294Z,6.55
2023-02-28T04:24:34.157Z,6.03
2023-02-28T04:27:05.093Z,6.35
2023-02-28T04:29:36.127Z,6.63
2023-02-28T04:32:07.052Z,6.72
2023-02-28T04:34:37.457Z,6.13
2023-02-28T04:37:13.655Z,6.30
2023-02-28T04:39:47.525Z,7.07
2023-02-28T04:42:17.908Z,7.05
2023-02-28T04:44:48.233Z,7.03
2023-02-28T04:47:18.473Z,7.20
2023-02-28T04:49:48.770Z,7.55
2023-02-28T04:52:19.177Z,7.10
2023-02-28T04:54:52.148Z,7.05
2023-02-28T04:57:22.452Z,6.85
2023-02-28T04:59:52.716Z,6.60
2023-02-28T05:02:24.899Z,7.30
2023-02-28T05:04:55.452Z,7.05
2023-02-28T05:07:25.735Z,7.32
2023-02-28T05:09:58.557Z,7.63
2023-02-28T05:12:28.893Z,7.63
2023-02-28T05:14:59.193Z,7.13
2023-02-28T05:17:29.660Z,7.45
2023-02-28T05:20:13.453Z,7.53
2023-02-28T05:22:46.441Z,7.40
2023-02-28T05:25:22.671Z,7.50
2023-02-28T05:27:53.106Z,7.22
2023-02-28T05:30:23.695Z,7.63
2023-02-28T05:32:55.438Z,8.45
2023-02-28T05:35:25.791Z,7.55
2023-02-28T05:37:56.141Z,7.75
2023-02-28T05:40:29.034Z,8.25
2023-02-28T05:42:59.352Z,7.38
2023-02-28T05:45:29.762Z,7.47
2023-02-28T05:48:00.709Z,7.68
2023-02-28T05:50:31.098Z,7.53
2023-02-28T05:53:01.696Z,7.88
2023-02-28T05:55:34.622Z,7.53
2023-02-28T05:58:05.043Z,7.90
2023-02-28T06:00:35.444Z,7.65
2023-02-28T06:03:05.845Z,8.60
2023-02-28T06:05:36.273Z,7.93
2023-02-28T06:08:08.057Z,8.18
2023-02-28T06:10:41.368Z,8.90
2023-02-28T06:13:12.782Z,7.97
2023-02-28T06:15:43.562Z,8.85
2023-02-28T06:18:13.880Z,9.40
2023-02-28T06:20:44.471Z,8.80
2023-02-28T06:23:14.779Z,8.38
2023-02-28T06:25:49.047Z,9.32
2023-02-28T06:28:19.554Z,9.13
2023-02-28T06:30:49.944Z,9.18
2023-02-28T06:33:20.399Z,9.23
2023-02-28T06:35:52.009Z,8.90
2023-02-28T06:38:22.635Z,8.98
2023-02-28T06:41:00.499Z,8.77
2023-02-28T06:43:33.368Z,10.05
2023-02-28T06:46:05.366Z,9.65
2023-02-28T06:48:36.165Z,11.00
2023-02-28T06:51:08.182Z,9.75
2023-02-28T06:53:38.740Z,9.88
2023-02-28T06:56:13.948Z,10.10
2023-02-28T06:58:45.004Z,9.73
2023-02-28T07:01:17.253Z,10.57
2023-02-28T07:03:47.660Z,10.73
2023-02-28T07:06:19.120Z,10.00
2023-02-28T07:08:49.650Z,10.38
2023-02-28T07:11:23.636Z,9.73
2023-02-28T07:13:54.445Z,10.38
2023-02-28T07:16:30.599Z,10.35
2023-02-28T07:19:00.927Z,10.25
2023-02-28T07:21:31.749Z,9.90
2023-02-28T07:24:02.246Z,10.85
2023-02-28T07:26:35.253Z,10.38
2023-02-28T07:29:06.075Z,10.48
2023-02-28T07:31:36.618Z,11.45
2023-02-28T07:34:06.918Z,11.63
2023-02-28T07:36:37.202Z,10.45
2023-02-28T07:39:22.776Z,11.00
2023-02-28T07:41:55.761Z,11.10
2023-02-28T07:47:00.136Z,10.93
2023-02-28T07:49:30.591Z,10.45
2023-02-28T07:52:00.884Z,10.35
2023-02-28T07:54:31.183Z,10.98
2023-02-28T07:57:04.107Z,10.98
2023-02-28T07:59:34.411Z,10.85
2023-02-28T08:02:04.786Z,11.38
2023-02-28T08:04:36.531Z,11.57
2023-02-28T08:07:07.064Z,11.25
2023-02-28T08:09:37.976Z,12.45
2023-02-28T08:12:11.843Z,11.95
2023-02-28T08:14:42.455Z,11.18
2023-02-28T08:17:13.749Z,12.02
2023-02-28T08:19:44.017Z,11.63
2023-02-28T08:22:14.773Z,12.32
2023-02-28T08:24:45.613Z,12.15
2023-02-28T08:27:18.643Z,12.07
2023-02-28T08:29:49.001Z,11.93
2023-02-28T08:32:29.506Z,11.98
2023-02-28T08:35:00.488Z,11.27
2023-02-28T08:37:30.871Z,12.25
2023-02-28T08:40:01.235Z,11.40
2023-02-28T08:42:34.345Z,10.90
2023-02-28T08:45:04.850Z,12.05
2023-02-28T08:47:35.571Z,11.00
2023-02-28T08:50:05.984Z,10.35
2023-02-28T08:52:36.417Z,11.07
2023-02-28T08:55:07.008Z,10.40
2023-02-28T08:57:39.930Z,10.75
2023-02-28T09:00:14.709Z,10.38
2023-02-28T09:02:45.189Z,9.57
2023-02-28T09:05:15.574Z,10.02
2023-02-28T09:07:45.899Z,10.07
2023-02-28T09:10:16.195Z,8.40
2023-02-28T09:12:49.296Z,9.38
2023-02-28T09:15:19.881Z,8.57
2023-02-28T09:17:50.231Z,7.65
2023-02-28T09:20:21.066Z,8.55
2023-02-28T09:22:51.363Z,7.57
2023-02-28T09:25:21.711Z,8.07
2023-02-28T09:27:54.679Z,8.02
2023-02-28T09:30:25.226Z,8.13
2023-02-28T09:32:55.764Z,7.35
2023-02-28T09:35:27.820Z,7.30
2023-02-28T09:37:59.331Z,8.38
2023-02-28T09:40:30.346Z,7.05
2023-02-28T09:43:04.177Z,6.53
2023-02-28T09:45:37.611Z,6.63
2023-02-28T09:48:14.465Z,7.03
2023-02-28T09:53:23.470Z,6.32
2023-02-28T09:55:57.641Z,6.43
2023-02-28T09:58:35.692Z,6.18
2023-02-28T10:01:11.413Z,5.65
2023-02-28T10:03:46.857Z,5.45
2023-02-28T10:06:21.698Z,5.82
2023-02-28T10:09:00.184Z,6.93
2023-02-28T10:11:32.653Z,6.82
2023-02-28T10:14:08.787Z,7.45
2023-02-28T10:16:44.607Z,6.60
2023-02-28T10:19:19.639Z,7.38
2023-02-28T10:21:55.699Z,7.57
2023-02-28T10:24:32.582Z,5.77
2023-02-28T10:29:38.009Z,5.25
2023-02-28T10:32:08.998Z,6.28
2023-02-28T10:34:39.324Z,5.10
2023-02-28T10:37:11.852Z,5.13
2023-02-28T10:39:44.180Z,5.05
2023-02-28T10:42:27.550Z,5.60
2023-02-28T10:45:17.217Z,5.20
2023-02-28T10:47:59.329Z,5.00
2023-02-28T10:50:41.807Z,5.10
2023-02-28T10:53:21.258Z,5.82
2023-02-28T10:56:01.915Z,5.28
2023-02-28T10:58:34.778Z,12.35
2023-02-28T11:01:07.733Z,4.38
2023-02-28T11:03:39.627Z,6.00
2023-02-28T11:06:16.022Z,7.47
2023-02-28T11:08:55.603Z,3.63
2023-02-28T11:11:29.624Z,5.82
2023-02-28T11:14:02.231Z,7.93
2023-02-28T11:16:41.592Z,10.05
2023-02-28T11:19:23.158Z,3.25
2023-02-28T11:21:59.583Z,4.43
2023-02-28T11:24:33.463Z,4.30
2023-02-28T11:27:03.929Z,3.15
2023-02-28T11:29:35.839Z,3.13
2023-02-28T11:32:29.853Z,3.10
2023-02-28T11:35:17.844Z,3.55
2023-02-28T11:37:49.293Z,3.30
2023-02-28T11:40:23.395Z,3.40
2023-02-28T11:43:02.240Z,3.00
2023-02-28T11:45:47.394Z,3.45
2023-02-28T11:48:25.686Z,3.25
2023-02-28T11:51:14.418Z,3.78
2023-02-28T11:53:55.755Z,3.22
2023-02-28T11:56:32.789Z,3.40
2023-02-28T11:59:18.155Z,3.30
2023-02-28T12:02:07.679Z,3.75
2023-02-28T12:04:50.569Z,3.70
2023-02-28T12:07:31.319Z,3.45
2023-02-28T12:10:10.114Z,3.67
2023-02-28T12:12:52.209Z,3.70
2023-02-28T12:15:51.032Z,3.75
2023-02-28T12:18:36.209Z,3.78
2023-02-28T12:21:15.642Z,3.78
2023-02-28T12:24:08.020Z,3.55
2023-02-28T12:26:42.304Z,3.65
2023-02-28T12:29:21.443Z,4.00
2023-02-28T12:31:57.640Z,4.05
2023-02-28T12:34:35.076Z,4.35
2023-02-28T12:37:14.122Z,4.00
2023-02-28T12:39:50.874Z,3.85
2023-02-28T12:44:56.274Z,3.35
2023-02-28T12:47:26.530Z,4.10
2023-02-28T12:50:02.051Z,4.00
2023-02-28T12:52:44.053Z,4.63
2023-02-28T12:55:21.088Z,4.18
2023-02-28T12:58:02.068Z,4.13
2023-02-28T13:00:39.139Z,3.85
2023-02-28T13:03:36.143Z,3.92
2023-02-28T13:06:31.087Z,4.05
2023-02-28T13:09:13.536Z,3.40
2023-02-28T13:11:45.893Z,3.63
2023-02-28T13:14:29.357Z,3.72
2023-02-28T13:17:06.599Z,3.65
2023-02-28T13:19:39.571Z,3.30
2023-02-28T13:22:21.143Z,3.05
2023-02-28T13:24:55.594Z,3.15
2023-02-28T13:27:39.028Z,3.30
2023-02-28T13:30:39.125Z,3.15
2023-02-28T13:33:27.145Z,2.97
2023-02-28T13:36:14.312Z,2.90
2023-02-28T13:38:46.556Z,2.90
2023-02-28T13:41:50.343Z,3.40
2023-02-28T13:44:25.086Z,2.70
2023-02-28T13:47:34.398Z,2.58
2023-02-28T13:50:25.253Z,2.95
2023-02-28T13:53:29.248Z,2.38
2023-02-28T13:56:06.344Z,3.10
2023-02-28T13:58:47.219Z,2.50
2023-02-28T14:01:44.159Z,2.70
2023-02-28T14:04:50.654Z,2.72
2023-02-28T14:07:25.328Z,3.10
2023-02-28T14:10:06.399Z,3.50
2023-02-28T14:12:58.974Z,3.40
2023-02-28T14:15:45.421Z,3.05
2023-02-28T14:18:25.754Z,2.93
2023-02-28T14:21:02.801Z,3.10
2023-02-28T14:24:21.400Z,3.33
2023-02-28T14:27:24.720Z,2.53
2023-02-28T14:30:34.416Z,3.50
2023-02-28T14:33:19.159Z,3.20
2023-02-28T14:36:08.328Z,3.22
2023-02-28T14:38:44.975Z,2.75
2023-02-28T14:41:25.839Z,3.45
2023-02-28T14:43:59.414Z,3.28
2023-02-28T14:46:33.988Z,3.30
2023-02-28T14:49:08.571Z,3.33
2023-02-28T14:51:39.365Z,6.25
2023-02-28T14:54:09.895Z,5.13
2023-02-28T14:56:42.036Z,4.50
2023-02-28T14:59:29.413Z,4.60
2023-02-28T15:02:22.775Z,4.13
2023-02-28T15:05:25.299Z,4.00
2023-02-28T15:08:06.564Z,3.40
2023-02-28T15:10:38.136Z,3.70
2023-02-28T15:13:11.334Z,3.92
2023-02-28T15:16:01.104Z,3.97
2023-02-28T15:18:37.232Z,4.50
2023-02-28T15:21:13.176Z,4.70
2023-02-28T15:23:46.902Z,5.15
2023-02-28T15:26:20.149Z,5.18
2023-02-28T15:28:52.636Z,5.80
2023-02-28T15:31:36.278Z,5.20
2023-02-28T15:34:26.513Z,5.18
2023-02-28T15:37:01.549Z,4.88
2023-02-28T15:39:32.917Z,5.43
2023-02-28T15:42:15.867Z,5.03
2023-02-28T15:44:46.143Z,4.85
2023-02-28T15:47:22.702Z,4.95
2023-02-28T15:49:56.395Z,5.97
2023-02-28T15:52:34.286Z,5.22
2023-02-28T15:55:13.742Z,6.05
2023-02-28T15:57:44.835Z,5.97
2023-02-28T16:00:17.708Z,6.43
2023-02-28T16:02:48.197Z,6.95
2023-02-28T16:05:33.071Z,8.07
2023-02-28T16:08:17.995Z,6.22
2023-02-28T16:10:49.086Z,7.10
2023-02-28T16:13:19.498Z,8.57
2023-02-28T16:15:52.467Z,8.13
2023-02-28T16:18:22.728Z,9.07
2023-02-28T16:20:52.990Z,8.25
2023-02-28T16:23:25.975Z,8.13
2023-02-28T16:25:56.551Z,8.60
2023-02-28T16:28:30.972Z,8.35
2023-02-28T16:31:03.813Z,8.43
2023-02-28T16:33:34.683Z,8.00
2023-02-28T16:36:05.465Z,8.45
2023-02-28T16:38:38.396Z,8.25
2023-02-28T16:41:10.150Z,8.07
2023-02-28T16:43:41.990Z,7.53
2023-02-28T16:46:14.838Z,8.60
2023-02-28T16:48:45.135Z,9.20
2023-02-28T16:51:19.781Z,9.18
2023-02-28T16:53:52.864Z,8.25
2023-02-28T16:56:24.761Z,8.07
2023-02-28T16:59:03.328Z,8.02
2023-02-28T17:01:34.550Z,8.43
2023-02-28T17:04:05.107Z,7.75
2023-02-28T17:06:35.744Z,7.78
2023-02-28T17:09:10.543Z,8.65
2023-02-28T17:11:41.112Z,9.15
2023-02-28T17:14:11.414Z,8.85
2023-02-28T17:16:43.725Z,9.43
2023-02-28T17:19:16.729Z,8.45
2023-02-28T17:21:47.350Z,10.43
2023-02-28T17:24:30.187Z,10.13
2023-02-28T17:27:02.502Z,9.55
2023-02-28T17:29:32.835Z,13.90
2023-02-28T17:32:15.795Z,12.65
2023-02-28T17:34:47.989Z,14.48
2023-02-28T17:37:18.395Z,13.82
2023-02-28T17:39:51.282Z,14.98
2023-02-28T17:42:22.147Z,13.32
2023-02-28T17:44:52.531Z,12.82
2023-02-28T17:47:23.027Z,12.48
2023-02-28T17:49:53.372Z,13.95
2023-02-28T17:52:23.713Z,13.77
2023-02-28T17:54:56.656Z,12.43
2023-02-28T17:57:26.975Z,12.95
2023-02-28T17:59:58.031Z,12.15
2023-02-28T18:02:28.556Z,12.27
2023-02-28T18:04:59.324Z,13.43
2023-02-28T18:07:29.606Z,15.55
2023-02-28T18:10:04.341Z,13.55
2023-02-28T18:12:35.159Z,13.65
2023-02-28T18:15:05.615Z,14.90
2023-02-28T18:17:35.924Z,12.40
2023-02-28T18:20:07.625Z,12.57
2023-02-28T18:22:38.129Z,12.65
2023-02-28T18:25:14.870Z,12.52
2023-02-28T18:27:54.152Z,12.02
2023-02-28T18:30:25.018Z,12.85
2023-02-28T18:32:55.608Z,11.63
2023-02-28T18:35:37.713Z,13.00
2023-02-28T18:38:11.746Z,13.23
2023-02-28T18:40:45.804Z,14.15
2023-02-28T18:43:16.128Z,13.20
2023-02-28T18:45:46.678Z,13.43
2023-02-28T18:48:22.230Z,13.20
2023-02-28T18:50:56.305Z,13.73
2023-02-28T18:53:30.334Z,12.30
2023-02-28T18:56:06.387Z,11.25
2023-02-28T18:58:37.085Z,11.35
2023-02-28T19:01:16.611Z,10.27
2023-02-28T19:03:48.096Z,9.30
2023-02-28T19:06:23.787Z,7.68
2023-02-28T19:08:57.716Z,8.77
2023-02-28T19:11:31.755Z,8.77
2023-02-28T19:14:06.883Z,8.55
2023-02-28T19:16:39.434Z,10.35
2023-02-28T19:19:14.522Z,9.80
2023-02-28T19:21:46.301Z,10.98
2023-02-28T19:24:16.654Z,10.32
2023-02-28T19:26:49.620Z,11.48
2023-02-28T19:29:19.929Z,10.55
2023-02-28T19:31:50.497Z,10.65
2023-02-28T19:34:21.306Z,10.50
2023-02-28T19:36:51.647Z,11.52
2023-02-28T19:39:21.991Z,11.25
2023-02-28T19:41:55.058Z,9.07
2023-02-28T19:44:25.285Z,9.13
2023-02-28T19:46:55.764Z,6.57
2023-02-28T19:49:26.911Z,5.18
2023-02-28T19:51:57.449Z,5.22
2023-02-28T19:54:28.146Z,5.45
2023-02-28T19:57:02.114Z,5.60
2023-02-28T19:59:39.281Z,5.15
2023-02-28T20:02:16.897Z,5.15
2023-02-28T20:07:22.599Z,4.95
2023-02-28T20:09:53.123Z,5.47
2023-02-28T20:12:26.298Z,4.68
2023-02-28T20:14:58.322Z,4.75
2023-02-28T20:17:29.491Z,4.78
2023-02-28T20:20:00.206Z,4.18
2023-02-28T20:22:30.589Z,4.78
2023-02-28T20:25:01.053Z,4.97
2023-02-28T20:27:35.268Z,5.95
2023-02-28T20:30:06.318Z,5.65
2023-02-28T20:32:39.824Z,6.57
2023-02-28T20:35:11.879Z,6.93
2023-02-28T20:37:42.517Z,5.82
2023-02-28T20:40:15.578Z,6.38
2023-02-28T20:42:48.566Z,6.45
2023-02-28T20:45:19.340Z,7.60
2023-02-28T20:47:49.723Z,7.28
2023-02-28T20:50:20.893Z,7.20
2023-02-28T20:52:51.303Z,7.80
2023-02-28T20:55:21.886Z,8.02
2023-02-28T20:57:55.177Z,8.10
2023-02-28T21:00:26.533Z,9.38
2023-02-28T21:02:56.882Z,8.15
2023-02-28T21:05:27.374Z,8.90
2023-02-28T21:07:57.760Z,9.20
2023-02-28T21:10:28.084Z,9.65
2023-02-28T21:13:01.009Z,9.95
2023-02-28T21:15:31.441Z,10.13
2023-02-28T21:18:01.855Z,11.25
2023-02-28T21:20:32.209Z,12.93
2023-02-28T21:23:02.525Z,12.48
2023-02-28T21:25:33.189Z,13.07
2023-02-28T21:28:08.249Z,13.10
2023-02-28T21:30:39.980Z,13.65
2023-02-28T21:33:10.320Z,13.27
2023-02-28T21:35:40.702Z,14.38
2023-02-28T21:38:11.047Z,15.00
2023-02-28T21:40:41.479Z,14.43
2023-02-28T21:43:14.365Z,14.00
2023-02-28T21:45:44.702Z,15.07
2023-02-28T21:48:14.973Z,15.52
2023-02-28T21:50:45.398Z,15.77
2023-02-28T21:53:15.660Z,15.40
2023-02-28T21:55:45.993Z,16.08
2023-02-28T21:58:19.011Z,15.43
2023-02-28T22:00:50.412Z,15.50
2023-02-28T22:03:20.868Z,16.83
2023-02-28T22:05:51.175Z,15.90
2023-02-28T22:08:22.525Z,15.82
2023-02-28T22:10:53.059Z,15.68
2023-02-28T22:13:25.978Z,16.55
2023-02-28T22:15:56.368Z,15.63
2023-02-28T22:18:26.844Z,16.02
2023-02-28T22:20:57.935Z,15.82
2023-02-28T22:23:28.265Z,16.60
2023-02-28T22:25:59.294Z,15.88
2023-02-28T22:28:33.094Z,15.95
2023-02-28T22:31:04.095Z,16.20
2023-02-28T22:33:34.448Z,15.32
2023-02-28T22:36:08.952Z,16.00
2023-02-28T22:38:39.371Z,15.75
2023-02-28T22:41:11.004Z,15.27
2023-02-28T22:43:45.186Z,15.07
2023-02-28T22:46:16.568Z,14.90
2023-02-28T22:48:48.083Z,15.23
2023-02-28T22:51:20.551Z,15.48
2023-02-28T22:53:52.682Z,16.17
2023-02-28T22:56:25.738Z,16.85
2023-02-28T22:59:00.875Z,15.65
2023-02-28T23:01:33.578Z,16.95
2023-02-28T23:04:04.629Z,16.02
2023-02-28T23:06:37.913Z,16.20
2023-02-28T23:09:10.188Z,15.38
2023-02-28T23:11:43.419Z,16.27
2023-02-28T23:14:18.033Z,16.15
2023-02-28T23:16:50.270Z,16.88
2023-02-28T23:19:23.235Z,16.00
2023-02-28T23:21:54.237Z,14.65
2023-02-28T23:24:27.077Z,15.32
2023-02-28T23:26:59.575Z,15.50
2023-02-28T23:29:32.706Z,16.17
2023-02-28T23:32:03.167Z,16.60
2023-02-28T23:34:33.495Z,14.75
2023-02-28T23:37:05.044Z,15.05
2023-02-28T23:39:35.414Z,14.68
2023-02-28T23:42:05.652Z,15.13
2023-02-28T23:44:38.684Z,15.90
2023-02-28T23:47:12.950Z,15.00
2023-02-28T23:49:43.295Z,15.27
2023-02-28T23:52:13.875Z,14.80
2023-02-28T23:54:44.219Z,14.85
2023-02-28T23:57:14.523Z,15.18
2023-02-28T23:59:47.807Z,15.77
